sensor_id;sensor_type;location;lat;lon;timestamp;pressure;altitude;pressure_sealevel;temperature;humidity
61474;BME280;53694;49.784;30.150;2023-03-15T00:00:22;98950.35;;;4.30;66.96
61474;BME280;53694;49.784;30.150;2023-03-15T00:01:23;98946.59;;;4.80;65.28
61474;BME280;53694;49.784;30.150;2023-03-15T00:02:25;98945.77;;;5.16;63.53
61474;BME280;53694;49.784;30.150;2023-03-15T00:03:26;98945.41;;;5.30;62.56
61474;BME280;53694;49.784;30.150;2023-03-15T00:04:28;98944.18;;;5.28;62.15
61474;BME280;53694;49.784;30.150;2023-03-15T00:05:30;98941.79;;;5.14;62.28
61474;BME280;53694;49.784;30.150;2023-03-15T00:06:32;98948.17;;;4.93;62.65
61474;BME280;53694;49.784;30.150;2023-03-15T00:07:34;98946.57;;;4.68;63.30
61474;BME280;53694;49.784;30.150;2023-03-15T00:08:36;98952.62;;;4.40;64.16
61474;BME280;53694;49.784;30.150;2023-03-15T00:09:38;98944.75;;;4.14;64.94
61474;BME280;53694;49.784;30.150;2023-03-15T00:10:41;98943.20;;;3.92;65.77
61474;BME280;53694;49.784;30.150;2023-03-15T00:11:43;98952.50;;;3.70;66.62
61474;BME280;53694;49.784;30.150;2023-03-15T00:12:45;98950.23;;;3.51;67.36
61474;BME280;53694;49.784;30.150;2023-03-15T00:13:46;98947.66;;;3.34;68.18
61474;BME280;53694;49.784;30.150;2023-03-15T00:14:49;98954.47;;;3.19;68.89
61474;BME280;53694;49.784;30.150;2023-03-15T00:15:52;98946.09;;;3.04;69.71
61474;BME280;53694;49.784;30.150;2023-03-15T00:16:55;98944.86;;;2.92;70.35
61474;BME280;53694;49.784;30.150;2023-03-15T00:17:56;98945.23;;;2.82;70.87
61474;BME280;53694;49.784;30.150;2023-03-15T00:18:58;98939.38;;;2.71;71.54
61474;BME280;53694;49.784;30.150;2023-03-15T00:20:00;98940.20;;;2.72;71.88
61474;BME280;53694;49.784;30.150;2023-03-15T00:21:01;98943.28;;;2.91;71.73
61474;BME280;53694;49.784;30.150;2023-03-15T00:22:04;98941.48;;;3.25;70.89
61474;BME280;53694;49.784;30.150;2023-03-15T00:23:05;98940.72;;;3.66;69.67
61474;BME280;53694;49.784;30.150;2023-03-15T00:24:07;98939.84;;;4.08;68.28
61474;BME280;53694;49.784;30.150;2023-03-15T00:25:09;98934.64;;;4.48;66.93
61474;BME280;53694;49.784;30.150;2023-03-15T00:26:12;98938.42;;;4.80;65.61
61474;BME280;53694;49.784;30.150;2023-03-15T00:27:13;98932.52;;;4.90;64.45
61474;BME280;53694;49.784;30.150;2023-03-15T00:28:15;98947.03;;;4.82;64.36
61474;BME280;53694;49.784;30.150;2023-03-15T00:29:17;98937.62;;;4.67;64.58
61474;BME280;53694;49.784;30.150;2023-03-15T00:30:19;98942.80;;;4.48;65.03
61474;BME280;53694;49.784;30.150;2023-03-15T00:31:23;98941.28;;;4.26;65.58
61474;BME280;53694;49.784;30.150;2023-03-15T00:32:24;98939.27;;;4.02;66.28
61474;BME280;53694;49.784;30.150;2023-03-15T00:33:26;98945.87;;;3.80;67.15
61474;BME280;53694;49.784;30.150;2023-03-15T00:34:28;98936.94;;;3.59;67.85
61474;BME280;53694;49.784;30.150;2023-03-15T00:35:29;98939.00;;;3.41;68.69
61474;BME280;53694;49.784;30.150;2023-03-15T00:36:31;98933.69;;;3.23;69.25
61474;BME280;53694;49.784;30.150;2023-03-15T00:37:32;98937.75;;;3.09;70.13
61474;BME280;53694;49.784;30.150;2023-03-15T00:38:36;98936.08;;;2.95;70.93
61474;BME280;53694;49.784;30.150;2023-03-15T00:39:37;98935.98;;;2.83;71.40
61474;BME280;53694;49.784;30.150;2023-03-15T00:40:39;98938.23;;;2.81;71.73
61474;BME280;53694;49.784;30.150;2023-03-15T00:41:41;98939.13;;;2.94;71.75
61474;BME280;53694;49.784;30.150;2023-03-15T00:42:42;98931.14;;;3.18;71.44
61474;BME280;53694;49.784;30.150;2023-03-15T00:43:44;98930.00;;;3.49;70.55
61474;BME280;53694;49.784;30.150;2023-03-15T00:44:46;98927.30;;;3.82;69.43
61474;BME280;53694;49.784;30.150;2023-03-15T00:45:47;98921.88;;;4.15;68.34
61474;BME280;53694;49.784;30.150;2023-03-15T00:46:49;98928.41;;;4.47;67.27
61474;BME280;53694;49.784;30.150;2023-03-15T00:47:52;98917.09;;;4.70;66.05
61474;BME280;53694;49.784;30.150;2023-03-15T00:48:54;98924.91;;;4.71;65.43
61474;BME280;53694;49.784;30.150;2023-03-15T00:49:56;98920.71;;;4.62;65.52
61474;BME280;53694;49.784;30.150;2023-03-15T00:51:06;98935.66;;;4.43;65.86
61474;BME280;53694;49.784;30.150;2023-03-15T00:52:08;98928.70;;;4.21;66.50
61474;BME280;53694;49.784;30.150;2023-03-15T00:53:10;98930.86;;;3.95;67.32
61474;BME280;53694;49.784;30.150;2023-03-15T00:54:11;98923.08;;;3.72;68.13
61474;BME280;53694;49.784;30.150;2023-03-15T00:55:16;98938.93;;;3.49;69.00
61474;BME280;53694;49.784;30.150;2023-03-15T00:56:21;98927.27;;;3.28;70.08
61474;BME280;53694;49.784;30.150;2023-03-15T00:57:22;98931.53;;;3.08;70.76
61474;BME280;53694;49.784;30.150;2023-03-15T00:58:24;98928.59;;;2.92;71.60
61474;BME280;53694;49.784;30.150;2023-03-15T00:59:27;98935.33;;;2.86;72.18
61474;BME280;53694;49.784;30.150;2023-03-15T01:00:30;98936.08;;;2.95;72.23
61474;BME280;53694;49.784;30.150;2023-03-15T01:01:31;98930.84;;;3.20;71.92
61474;BME280;53694;49.784;30.150;2023-03-15T01:02:33;98923.78;;;3.48;71.20
61474;BME280;53694;49.784;30.150;2023-03-15T01:03:35;98923.48;;;3.83;70.22
61474;BME280;53694;49.784;30.150;2023-03-15T01:04:36;98920.77;;;4.16;68.91
61474;BME280;53694;49.784;30.150;2023-03-15T01:05:38;98927.27;;;4.48;67.78
61474;BME280;53694;49.784;30.150;2023-03-15T01:06:39;98926.28;;;4.78;66.45
61474;BME280;53694;49.784;30.150;2023-03-15T01:07:41;98922.55;;;4.94;65.62
61474;BME280;53694;49.784;30.150;2023-03-15T01:08:43;98922.66;;;4.98;64.95
61474;BME280;53694;49.784;30.150;2023-03-15T01:09:45;98924.23;;;4.87;65.11
61474;BME280;53694;49.784;30.150;2023-03-15T01:10:46;98925.60;;;4.68;65.46
61474;BME280;53694;49.784;30.150;2023-03-15T01:11:48;98916.15;;;4.41;66.17
61474;BME280;53694;49.784;30.150;2023-03-15T01:12:49;98930.38;;;4.14;67.06
61474;BME280;53694;49.784;30.150;2023-03-15T01:13:51;98926.64;;;3.85;67.98
61474;BME280;53694;49.784;30.150;2023-03-15T01:14:54;98928.14;;;3.62;68.91
61474;BME280;53694;49.784;30.150;2023-03-15T01:15:55;98929.23;;;3.40;69.85
61474;BME280;53694;49.784;30.150;2023-03-15T01:16:57;98931.97;;;3.19;70.92
61474;BME280;53694;49.784;30.150;2023-03-15T01:17:58;98924.24;;;3.00;71.68
61474;BME280;53694;49.784;30.150;2023-03-15T01:19:00;98933.75;;;2.85;72.17
61474;BME280;53694;49.784;30.150;2023-03-15T01:20:02;98933.12;;;2.80;72.91
61474;BME280;53694;49.784;30.150;2023-03-15T01:21:08;98935.48;;;2.90;73.10
61474;BME280;53694;49.784;30.150;2023-03-15T01:22:10;98933.27;;;3.13;72.75
61474;BME280;53694;49.784;30.150;2023-03-15T01:23:12;98934.63;;;3.48;71.77
61474;BME280;53694;49.784;30.150;2023-03-15T01:24:14;98939.78;;;3.83;70.67
61474;BME280;53694;49.784;30.150;2023-03-15T01:25:15;98934.01;;;4.18;69.40
61474;BME280;53694;49.784;30.150;2023-03-15T01:26:18;98935.91;;;4.50;68.23
61474;BME280;53694;49.784;30.150;2023-03-15T01:27:19;98935.23;;;4.78;66.82
61474;BME280;53694;49.784;30.150;2023-03-15T01:28:21;98922.19;;;4.96;65.95
61474;BME280;53694;49.784;30.150;2023-03-15T01:29:22;98920.73;;;4.98;65.42
61474;BME280;53694;49.784;30.150;2023-03-15T01:30:24;98923.45;;;4.86;65.46
61474;BME280;53694;49.784;30.150;2023-03-15T01:31:27;98925.92;;;4.67;65.85
61474;BME280;53694;49.784;30.150;2023-03-15T01:32:30;98930.16;;;4.19;66.87
61474;BME280;53694;49.784;30.150;2023-03-15T01:33:31;98930.16;;;4.19;66.87
61474;BME280;53694;49.784;30.150;2023-03-15T01:34:34;98931.86;;;3.90;68.01
61474;BME280;53694;49.784;30.150;2023-03-15T01:35:36;98932.88;;;3.65;68.96
61474;BME280;53694;49.784;30.150;2023-03-15T01:36:37;98937.07;;;3.41;69.90
61474;BME280;53694;49.784;30.150;2023-03-15T01:37:39;98935.13;;;3.21;70.67
61474;BME280;53694;49.784;30.150;2023-03-15T01:38:41;98935.58;;;3.02;71.54
61474;BME280;53694;49.784;30.150;2023-03-15T01:39:43;98935.33;;;2.86;72.12
61474;BME280;53694;49.784;30.150;2023-03-15T01:40:45;98936.63;;;2.80;72.89
61474;BME280;53694;49.784;30.150;2023-03-15T01:41:46;98930.05;;;2.90;72.91
61474;BME280;53694;49.784;30.150;2023-03-15T01:44:11;98944.22;;;3.46;71.71
61474;BME280;53694;49.784;30.150;2023-03-15T01:45:50;98934.58;;;3.90;70.37
61474;BME280;53694;49.784;30.150;2023-03-15T01:46:50;98939.80;;;4.29;68.89
61474;BME280;53694;49.784;30.150;2023-03-15T01:47:52;98925.27;;;4.82;67.11
61474;BME280;53694;49.784;30.150;2023-03-15T01:48:59;98927.50;;;5.17;65.88
61474;BME280;53694;49.784;30.150;2023-03-15T01:50:06;98934.17;;;5.44;64.74
61474;BME280;53694;49.784;30.150;2023-03-15T01:51:41;98933.57;;;5.50;63.75
61474;BME280;53694;49.784;30.150;2023-03-15T01:52:43;98929.65;;;5.36;63.43
61474;BME280;53694;49.784;30.150;2023-03-15T01:53:57;98932.75;;;4.97;64.25
61474;BME280;53694;49.784;30.150;2023-03-15T01:55:08;98931.83;;;4.69;64.96
61474;BME280;53694;49.784;30.150;2023-03-15T01:56:11;98933.82;;;4.35;66.06
61474;BME280;53694;49.784;30.150;2023-03-15T01:57:22;98927.03;;;3.96;67.36
61474;BME280;53694;49.784;30.150;2023-03-15T01:58:23;98917.52;;;3.69;68.48
61474;BME280;53694;49.784;30.150;2023-03-15T01:59:29;98927.34;;;3.40;69.80
61474;BME280;53694;49.784;30.150;2023-03-15T02:00:32;98930.69;;;3.16;70.87
61474;BME280;53694;49.784;30.150;2023-03-15T02:01:35;98921.39;;;2.96;71.61
61474;BME280;53694;49.784;30.150;2023-03-15T02:02:41;98922.75;;;2.82;72.34
61474;BME280;53694;49.784;30.150;2023-03-15T02:03:45;98929.80;;;2.74;72.93
61474;BME280;53694;49.784;30.150;2023-03-15T02:04:56;98928.78;;;2.87;73.09
61474;BME280;53694;49.784;30.150;2023-03-15T02:06:06;98924.78;;;3.14;72.68
61474;BME280;53694;49.784;30.150;2023-03-15T02:07:04;98923.88;;;3.52;71.83
61474;BME280;53694;49.784;30.150;2023-03-15T02:08:08;98929.36;;;3.85;70.72
61474;BME280;53694;49.784;30.150;2023-03-15T02:09:10;98930.62;;;4.21;69.57
61474;BME280;53694;49.784;30.150;2023-03-15T02:10:14;98923.54;;;4.53;68.42
61474;BME280;53694;49.784;30.150;2023-03-15T02:11:20;98923.69;;;4.81;67.11
61474;BME280;53694;49.784;30.150;2023-03-15T02:12:23;98925.14;;;5.03;66.19
61474;BME280;53694;49.784;30.150;2023-03-15T02:13:27;98929.01;;;5.02;65.41
61474;BME280;53694;49.784;30.150;2023-03-15T02:14:31;98931.26;;;4.88;65.62
61474;BME280;53694;49.784;30.150;2023-03-15T02:15:33;98930.92;;;4.65;66.10
61474;BME280;53694;49.784;30.150;2023-03-15T02:16:37;98925.80;;;4.39;66.76
61474;BME280;53694;49.784;30.150;2023-03-15T02:17:41;98926.08;;;4.13;67.55
61474;BME280;53694;49.784;30.150;2023-03-15T02:18:43;98935.27;;;3.87;68.37
61474;BME280;53694;49.784;30.150;2023-03-15T02:19:58;98931.30;;;3.64;69.26
61474;BME280;53694;49.784;30.150;2023-03-15T02:21:19;98927.34;;;3.40;70.10
61474;BME280;53694;49.784;30.150;2023-03-15T02:22:34;98929.11;;;3.15;70.98
61474;BME280;53694;49.784;30.150;2023-03-15T02:23:34;98927.15;;;2.95;71.82
61474;BME280;53694;49.784;30.150;2023-03-15T02:24:44;98931.64;;;2.91;72.50
61474;BME280;53694;49.784;30.150;2023-03-15T02:26:15;98931.39;;;3.05;72.68
61474;BME280;53694;49.784;30.150;2023-03-15T02:27:13;98927.07;;;3.33;72.23
61474;BME280;53694;49.784;30.150;2023-03-15T02:28:17;98920.98;;;3.78;71.06
61474;BME280;53694;49.784;30.150;2023-03-15T02:29:21;98918.36;;;4.15;69.94
61474;BME280;53694;49.784;30.150;2023-03-15T02:30:24;98912.22;;;4.51;68.86
61474;BME280;53694;49.784;30.150;2023-03-15T02:31:25;98910.08;;;4.81;67.25
61474;BME280;53694;49.784;30.150;2023-03-15T02:32:28;98915.61;;;4.97;66.64
61474;BME280;53694;49.784;30.150;2023-03-15T02:33:33;98907.56;;;5.00;66.14
61474;BME280;53694;49.784;30.150;2023-03-15T02:34:35;98903.73;;;4.89;65.94
61474;BME280;53694;49.784;30.150;2023-03-15T02:35:36;98910.74;;;4.66;66.42
61474;BME280;53694;49.784;30.150;2023-03-15T02:36:38;98909.13;;;4.40;67.10
61474;BME280;53694;49.784;30.150;2023-03-15T02:37:39;98903.64;;;4.16;67.81
61474;BME280;53694;49.784;30.150;2023-03-15T02:38:41;98904.38;;;3.92;68.53
61474;BME280;53694;49.784;30.150;2023-03-15T02:39:42;98903.49;;;3.67;69.34
61474;BME280;53694;49.784;30.150;2023-03-15T02:40:45;98910.37;;;3.43;70.16
61474;BME280;53694;49.784;30.150;2023-03-15T02:41:51;98911.19;;;3.23;70.94
61474;BME280;53694;49.784;30.150;2023-03-15T02:42:55;98904.91;;;3.01;71.83
61474;BME280;53694;49.784;30.150;2023-03-15T02:44:04;98899.88;;;2.91;72.50
61474;BME280;53694;49.784;30.150;2023-03-15T02:45:02;98899.83;;;3.00;72.84
61474;BME280;53694;49.784;30.150;2023-03-15T02:46:04;98897.14;;;3.21;72.55
61474;BME280;53694;49.784;30.150;2023-03-15T02:47:15;98894.70;;;3.49;71.97
61474;BME280;53694;49.784;30.150;2023-03-15T02:48:19;98897.42;;;3.82;71.22
61474;BME280;53694;49.784;30.150;2023-03-15T02:49:23;98898.33;;;4.19;69.91
61474;BME280;53694;49.784;30.150;2023-03-15T02:50:26;98896.22;;;4.49;68.82
61474;BME280;53694;49.784;30.150;2023-03-15T02:51:28;98891.70;;;4.78;67.76
61474;BME280;53694;49.784;30.150;2023-03-15T02:52:30;98894.55;;;4.94;66.62
61474;BME280;53694;49.784;30.150;2023-03-15T02:53:32;98890.68;;;4.95;66.41
61474;BME280;53694;49.784;30.150;2023-03-15T02:54:33;98887.97;;;4.83;66.29
61474;BME280;53694;49.784;30.150;2023-03-15T02:55:35;98890.48;;;4.63;66.63
61474;BME280;53694;49.784;30.150;2023-03-15T02:56:36;98891.24;;;4.39;67.21
61474;BME280;53694;49.784;30.150;2023-03-15T02:57:38;98884.52;;;4.12;67.84
61474;BME280;53694;49.784;30.150;2023-03-15T02:58:40;98887.03;;;3.84;68.70
61474;BME280;53694;49.784;30.150;2023-03-15T02:59:42;98888.86;;;3.59;69.58
61474;BME280;53694;49.784;30.150;2023-03-15T03:00:44;98893.06;;;3.36;70.61
61474;BME280;53694;49.784;30.150;2023-03-15T03:01:45;98889.06;;;3.12;71.45
61474;BME280;53694;49.784;30.150;2023-03-15T03:02:47;98890.62;;;2.92;72.41
61474;BME280;53694;49.784;30.150;2023-03-15T03:03:49;98894.84;;;2.81;73.20
61474;BME280;53694;49.784;30.150;2023-03-15T03:04:50;98884.14;;;2.85;73.54
61474;BME280;53694;49.784;30.150;2023-03-15T03:05:52;98879.40;;;3.03;73.40
61474;BME280;53694;49.784;30.150;2023-03-15T03:06:54;98883.51;;;3.30;72.92
61474;BME280;53694;49.784;30.150;2023-03-15T03:07:55;98878.78;;;3.60;72.09
61474;BME280;53694;49.784;30.150;2023-03-15T03:08:57;98879.46;;;3.90;71.07
61474;BME280;53694;49.784;30.150;2023-03-15T03:09:58;98878.98;;;4.21;70.14
61474;BME280;53694;49.784;30.150;2023-03-15T03:11:00;98875.26;;;4.50;69.17
61474;BME280;53694;49.784;30.150;2023-03-15T03:12:02;98875.39;;;4.78;67.97
61474;BME280;53694;49.784;30.150;2023-03-15T03:13:04;98872.19;;;5.00;67.05
61474;BME280;53694;49.784;30.150;2023-03-15T03:14:05;98872.63;;;5.15;66.26
61474;BME280;53694;49.784;30.150;2023-03-15T03:15:08;98878.75;;;5.12;65.55
61474;BME280;53694;49.784;30.150;2023-03-15T03:16:10;98875.03;;;4.92;65.72
61474;BME280;53694;49.784;30.150;2023-03-15T03:17:12;98868.72;;;4.63;66.34
61474;BME280;53694;49.784;30.150;2023-03-15T03:18:13;98869.95;;;4.29;67.24
61474;BME280;53694;49.784;30.150;2023-03-15T03:19:15;98877.34;;;3.95;68.33
61474;BME280;53694;49.784;30.150;2023-03-15T03:20:17;98878.58;;;3.65;69.44
61474;BME280;53694;49.784;30.150;2023-03-15T03:21:18;98892.23;;;3.35;70.54
61474;BME280;53694;49.784;30.150;2023-03-15T03:22:20;98892.77;;;3.08;71.58
61474;BME280;53694;49.784;30.150;2023-03-15T03:23:23;98896.09;;;2.84;72.74
61474;BME280;53694;49.784;30.150;2023-03-15T03:24:24;98881.20;;;2.69;73.54
61474;BME280;53694;49.784;30.150;2023-03-15T03:25:26;98890.57;;;2.71;74.16
61474;BME280;53694;49.784;30.150;2023-03-15T03:26:28;98891.94;;;2.86;74.26
61474;BME280;53694;49.784;30.150;2023-03-15T03:27:29;98897.06;;;3.09;73.70
61474;BME280;53694;49.784;30.150;2023-03-15T03:28:31;98897.02;;;3.38;72.92
61474;BME280;53694;49.784;30.150;2023-03-15T03:29:33;98894.87;;;3.65;72.09
61474;BME280;53694;49.784;30.150;2023-03-15T03:30:34;98890.45;;;3.93;71.17
61474;BME280;53694;49.784;30.150;2023-03-15T03:31:36;98899.91;;;4.20;70.04
61474;BME280;53694;49.784;30.150;2023-03-15T03:32:39;98892.16;;;4.43;69.19
61474;BME280;53694;49.784;30.150;2023-03-15T03:33:41;98890.80;;;4.62;68.00
61474;BME280;53694;49.784;30.150;2023-03-15T03:34:42;98894.43;;;4.78;67.36
61474;BME280;53694;49.784;30.150;2023-03-15T03:35:44;98892.73;;;4.86;66.85
61474;BME280;53694;49.784;30.150;2023-03-15T03:36:46;98888.55;;;4.76;66.69
61474;BME280;53694;49.784;30.150;2023-03-15T03:37:47;98885.23;;;4.58;67.12
61474;BME280;53694;49.784;30.150;2023-03-15T03:38:49;98888.16;;;4.29;67.69
61474;BME280;53694;49.784;30.150;2023-03-15T03:39:51;98878.92;;;3.96;68.62
61474;BME280;53694;49.784;30.150;2023-03-15T03:40:52;98880.98;;;3.66;69.61
61474;BME280;53694;49.784;30.150;2023-03-15T03:41:54;98886.02;;;3.35;70.77
61474;BME280;53694;49.784;30.150;2023-03-15T03:42:55;98882.56;;;3.05;72.01
61474;BME280;53694;49.784;30.150;2023-03-15T03:43:57;98880.81;;;2.79;73.05
61474;BME280;53694;49.784;30.150;2023-03-15T03:44:58;98887.91;;;2.63;73.96
61474;BME280;53694;49.784;30.150;2023-03-15T03:46:00;98883.27;;;2.63;74.40
61474;BME280;53694;49.784;30.150;2023-03-15T03:47:01;98884.64;;;2.78;74.49
61474;BME280;53694;49.784;30.150;2023-03-15T03:48:04;98884.03;;;3.02;74.10
61474;BME280;53694;49.784;30.150;2023-03-15T03:49:05;98883.85;;;3.28;73.41
61474;BME280;53694;49.784;30.150;2023-03-15T03:50:09;98879.45;;;3.57;72.78
61474;BME280;53694;49.784;30.150;2023-03-15T03:51:11;98877.09;;;3.88;71.87
61474;BME280;53694;49.784;30.150;2023-03-15T03:52:12;98868.44;;;4.19;70.80
61474;BME280;53694;49.784;30.150;2023-03-15T03:53:14;98869.61;;;4.43;69.44
61474;BME280;53694;49.784;30.150;2023-03-15T03:54:16;98872.23;;;4.64;68.50
61474;BME280;53694;49.784;30.150;2023-03-15T03:55:17;98861.55;;;4.83;67.73
61474;BME280;53694;49.784;30.150;2023-03-15T03:56:19;98872.78;;;4.94;67.25
61474;BME280;53694;49.784;30.150;2023-03-15T03:57:20;98875.73;;;4.89;66.96
61474;BME280;53694;49.784;30.150;2023-03-15T03:58:22;98874.05;;;4.72;66.98
61474;BME280;53694;49.784;30.150;2023-03-15T03:59:23;98875.84;;;4.43;67.61
61474;BME280;53694;49.784;30.150;2023-03-15T04:00:25;98871.72;;;4.13;68.40
61474;BME280;53694;49.784;30.150;2023-03-15T04:01:27;98878.18;;;3.75;69.57
61474;BME280;53694;49.784;30.150;2023-03-15T04:02:28;98873.06;;;3.40;70.77
61474;BME280;53694;49.784;30.150;2023-03-15T04:03:30;98879.54;;;3.06;72.12
61474;BME280;53694;49.784;30.150;2023-03-15T04:04:31;98874.59;;;2.79;73.41
61474;BME280;53694;49.784;30.150;2023-03-15T04:05:33;98879.32;;;2.61;74.42
61474;BME280;53694;49.784;30.150;2023-03-15T04:06:35;98876.95;;;2.59;75.02
61474;BME280;53694;49.784;30.150;2023-03-15T04:07:37;98875.92;;;2.72;75.06
61474;BME280;53694;49.784;30.150;2023-03-15T04:08:39;98877.54;;;2.94;74.69
61474;BME280;53694;49.784;30.150;2023-03-15T04:09:41;98871.59;;;3.22;74.12
61474;BME280;53694;49.784;30.150;2023-03-15T04:10:43;98871.52;;;3.51;73.36
61474;BME280;53694;49.784;30.150;2023-03-15T04:11:44;98868.69;;;3.81;72.53
61474;BME280;53694;49.784;30.150;2023-03-15T04:12:46;98873.84;;;4.07;71.19
61474;BME280;53694;49.784;30.150;2023-03-15T04:13:49;98873.10;;;4.31;70.37
61474;BME280;53694;49.784;30.150;2023-03-15T04:14:51;98875.38;;;4.54;69.40
61474;BME280;53694;49.784;30.150;2023-03-15T04:15:52;98879.92;;;4.74;68.75
61474;BME280;53694;49.784;30.150;2023-03-15T04:16:54;98873.09;;;4.92;67.76
61474;BME280;53694;49.784;30.150;2023-03-15T04:17:55;98879.56;;;5.00;67.34
61474;BME280;53694;49.784;30.150;2023-03-15T04:18:57;98877.52;;;4.97;67.16
61474;BME280;53694;49.784;30.150;2023-03-15T04:19:58;98876.17;;;4.79;67.22
61474;BME280;53694;49.784;30.150;2023-03-15T04:21:00;98891.70;;;4.54;67.65
61474;BME280;53694;49.784;30.150;2023-03-15T04:22:02;98888.25;;;4.20;68.45
61474;BME280;53694;49.784;30.150;2023-03-15T04:23:03;98887.16;;;3.88;69.43
61474;BME280;53694;49.784;30.150;2023-03-15T04:24:05;98889.41;;;3.53;70.58
61474;BME280;53694;49.784;30.150;2023-03-15T04:25:07;98893.30;;;3.22;71.82
61474;BME280;53694;49.784;30.150;2023-03-15T04:26:09;98891.39;;;2.72;74.11
61474;BME280;53694;49.784;30.150;2023-03-15T04:27:11;98891.39;;;2.72;74.11
61474;BME280;53694;49.784;30.150;2023-03-15T04:28:12;98893.28;;;2.71;74.86
61474;BME280;53694;49.784;30.150;2023-03-15T04:29:14;98898.49;;;2.85;74.85
61474;BME280;53694;49.784;30.150;2023-03-15T04:30:17;98898.64;;;3.10;74.66
61474;BME280;53694;49.784;30.150;2023-03-15T04:31:19;98895.77;;;3.36;74.03
61474;BME280;53694;49.784;30.150;2023-03-15T04:32:21;98901.91;;;3.66;73.41
61474;BME280;53694;49.784;30.150;2023-03-15T04:33:27;98895.55;;;3.95;72.41
61474;BME280;53694;49.784;30.150;2023-03-15T04:34:29;98905.03;;;4.22;71.44
61474;BME280;53694;49.784;30.150;2023-03-15T04:35:33;98901.22;;;4.47;70.44
61474;BME280;53694;49.784;30.150;2023-03-15T04:36:35;98909.61;;;4.67;69.48
61474;BME280;53694;49.784;30.150;2023-03-15T04:37:36;98904.41;;;4.86;68.71
61474;BME280;53694;49.784;30.150;2023-03-15T04:38:37;98904.84;;;5.00;67.68
61474;BME280;53694;49.784;30.150;2023-03-15T04:39:39;98897.58;;;5.05;67.44
61474;BME280;53694;49.784;30.150;2023-03-15T04:40:41;98903.14;;;4.96;67.50
61474;BME280;53694;49.784;30.150;2023-03-15T04:41:42;98901.80;;;4.78;67.75
61474;BME280;53694;49.784;30.150;2023-03-15T04:42:43;98896.58;;;4.48;68.46
61474;BME280;53694;49.784;30.150;2023-03-15T04:43:45;98904.78;;;4.15;69.54
61474;BME280;53694;49.784;30.150;2023-03-15T04:44:46;98904.47;;;3.83;70.69
61474;BME280;53694;49.784;30.150;2023-03-15T04:45:48;98905.22;;;3.50;71.91
61474;BME280;53694;49.784;30.150;2023-03-15T04:46:49;98908.48;;;3.23;72.98
61474;BME280;53694;49.784;30.150;2023-03-15T04:47:52;98907.46;;;3.07;73.91
61474;BME280;53694;49.784;30.150;2023-03-15T04:48:53;98902.83;;;3.07;74.60
61474;BME280;53694;49.784;30.150;2023-03-15T04:49:55;98900.98;;;3.20;74.74
61474;BME280;53694;49.784;30.150;2023-03-15T04:50:57;98904.50;;;3.41;74.41
61474;BME280;53694;49.784;30.150;2023-03-15T04:51:58;98908.45;;;3.65;73.72
61474;BME280;53694;49.784;30.150;2023-03-15T04:53:00;98902.91;;;3.94;73.11
61474;BME280;53694;49.784;30.150;2023-03-15T04:54:01;98906.95;;;4.21;72.19
61474;BME280;53694;49.784;30.150;2023-03-15T04:55:04;98903.94;;;4.47;71.26
61474;BME280;53694;49.784;30.150;2023-03-15T04:56:06;98906.22;;;4.70;70.44
61474;BME280;53694;49.784;30.150;2023-03-15T04:57:08;98908.94;;;4.94;69.55
61474;BME280;53694;49.784;30.150;2023-03-15T04:58:09;98914.57;;;5.14;68.72
61474;BME280;53694;49.784;30.150;2023-03-15T04:59:11;98914.67;;;5.30;67.90
61474;BME280;53694;49.784;30.150;2023-03-15T05:00:14;98918.05;;;5.39;67.65
61474;BME280;53694;49.784;30.150;2023-03-15T05:01:15;98919.79;;;5.31;67.05
61474;BME280;53694;49.784;30.150;2023-03-15T05:02:17;98914.02;;;5.08;67.43
61474;BME280;53694;49.784;30.150;2023-03-15T05:03:19;98912.68;;;4.78;68.24
61474;BME280;53694;49.784;30.150;2023-03-15T05:04:20;98914.34;;;4.45;69.35
61474;BME280;53694;49.784;30.150;2023-03-15T05:05:22;98921.88;;;4.15;70.47
61474;BME280;53694;49.784;30.150;2023-03-15T05:06:24;98921.34;;;3.89;71.37
61474;BME280;53694;49.784;30.150;2023-03-15T05:07:25;98918.06;;;3.62;72.53
61474;BME280;53694;49.784;30.150;2023-03-15T05:08:27;98918.52;;;3.43;73.45
61474;BME280;53694;49.784;30.150;2023-03-15T05:09:30;98915.80;;;3.43;73.97
61474;BME280;53694;49.784;30.150;2023-03-15T05:10:31;98912.84;;;3.57;74.14
61474;BME280;53694;49.784;30.150;2023-03-15T05:11:33;98911.00;;;3.82;73.81
61474;BME280;53694;49.784;30.150;2023-03-15T05:12:34;98915.08;;;4.09;73.11
61474;BME280;53694;49.784;30.150;2023-03-15T05:13:36;98912.52;;;4.37;72.22
61474;BME280;53694;49.784;30.150;2023-03-15T05:14:38;98903.72;;;4.65;71.49
61474;BME280;53694;49.784;30.150;2023-03-15T05:15:39;98907.36;;;4.93;70.59
61474;BME280;53694;49.784;30.150;2023-03-15T05:16:41;98912.75;;;5.18;69.59
61474;BME280;53694;49.784;30.150;2023-03-15T05:17:42;98907.95;;;5.39;68.53
61474;BME280;53694;49.784;30.150;2023-03-15T05:18:44;98918.13;;;5.55;67.65
61474;BME280;53694;49.784;30.150;2023-03-15T05:19:46;98916.05;;;5.64;67.47
61474;BME280;53694;49.784;30.150;2023-03-15T05:20:48;98912.11;;;5.61;67.29
61474;BME280;53694;49.784;30.150;2023-03-15T05:21:50;98913.97;;;5.45;67.54
61474;BME280;53694;49.784;30.150;2023-03-15T05:22:51;98915.16;;;5.19;67.92
61474;BME280;53694;49.784;30.150;2023-03-15T05:23:53;98913.13;;;4.92;68.78
61474;BME280;53694;49.784;30.150;2023-03-15T05:24:54;98904.08;;;4.63;69.61
61474;BME280;53694;49.784;30.150;2023-03-15T05:25:56;98917.04;;;4.33;70.56
61474;BME280;53694;49.784;30.150;2023-03-15T05:26:57;98908.38;;;4.07;71.61
61474;BME280;53694;49.784;30.150;2023-03-15T05:27:59;98912.14;;;3.81;72.64
61474;BME280;53694;49.784;30.150;2023-03-15T05:29:00;98912.77;;;3.66;73.61
61474;BME280;53694;49.784;30.150;2023-03-15T05:30:02;98923.95;;;3.64;74.28
61474;BME280;53694;49.784;30.150;2023-03-15T05:31:04;98927.48;;;3.98;74.19
61474;BME280;53694;49.784;30.150;2023-03-15T05:32:06;98927.48;;;3.98;74.19
61474;BME280;53694;49.784;30.150;2023-03-15T05:33:07;98919.53;;;4.26;73.54